Latest Weather Observations for Daly Waters

IDD60801

Issued at 9:31 pm CST Sunday 4 December 2016 (issued every 30 minutes, with the page automatically refreshed every 10 minutes)

About weather observations | Map of weather stations | Latest weather observations for NT | Other Formats
Station Details ID: 014626 Name: DALY WATERS AIRSTRIP Lat: -16.26 Lon: 133.38 Height: 209.84 m
Data from the previous 72 hours. | See also: Recent months at Daly Waters
Date/Time
CST
Temp
°C
App
Temp
°C
Dew
Point
°C
Rel
Hum
%
Delta-T
°C
Wind Press
QNH
hPa
Press
MSL
hPa
Rain since
9am
mm
Dir  Spd
km/h
Gust
km/h
Spd
kts
Gust
kts
04/09:30pm 30.8 30.2 12.2 32 11.0 N 7 9 4 5 1009.1 1007.4 0.0
04/09:00pm 27.9 29.7 17.4 52 6.7 NE 4 6 2 3 1008.3 1006.7 0.0
04/08:30pm 28.9 30.7 15.4 44 8.4 CALM 0 0 0 0 1007.9 1006.3 0.0
04/08:00pm 30.2 30.9 13.5 36 10.1 NNE 2 4 1 2 1007.6 1006.0 0.0
04/07:30pm 32.9 32.2 11.4 27 12.7 NE 6 6 3 3 1007.3 1005.7 0.0
04/07:00pm 35.9 34.7 10.2 21 15.1 NE 7 13 4 7 1007.0 1005.4 0.0
04/06:30pm 37.6 36.1 9.2 18 16.6 NE 7 13 4 7 1006.7 1005.1 0.0
04/06:00pm 38.4 36.1 9.0 17 17.2 NE 11 20 6 11 1006.5 1004.9 0.0
04/05:30pm 39.6 36.9 9.1 16 17.9 ENE 13 20 7 11 1006.5 1004.9 0.0
04/05:00pm 39.9 37.3 9.3 16 18.0 NE 13 20 7 11 1006.5 1004.9 0.0
04/04:30pm 40.0 37.4 9.4 16 18.1 NE 13 28 7 15 1006.7 1005.1 0.0
04/04:00pm 40.2 37.3 9.6 16 18.1 NE 15 28 8 15 1006.8 1005.2 0.0
04/03:30pm 39.2 36.8 8.8 16 17.8 ENE 11 28 6 15 1007.1 1005.5 0.0
04/03:00pm 41.3 38.0 9.5 15 18.9 ENE 17 35 9 19 1007.4 1005.8 0.0
04/02:30pm 39.9 37.3 9.3 16 18.1 ENE 13 28 7 15 1007.9 1006.3 0.0
04/02:00pm 39.2 37.2 8.8 16 17.7 NNE 9 24 5 13 1008.3 1006.7 0.0
04/01:30pm 39.1 36.8 10.4 18 17.1 NE 13 30 7 16 1009.1 1007.4 0.0
04/01:00pm 38.8 38.4 12.5 21 16.1 SE 6 15 3 8 1009.6 1007.9 0.0
04/12:30pm 37.8 37.0 11.7 21 15.8 WNW 7 13 4 7 1009.9 1008.2 0.0
04/12:00pm 38.3 37.6 12.1 21 16.0 E 7 17 4 9 1010.5 1008.9 0.0
04/11:30am 36.9 36.3 12.4 23 14.9 NNW 7 15 4 8 1010.9 1009.3 0.0
04/11:00am 36.4 36.5 13.8 26 14.0 SW 6 17 3 9 1011.3 1009.7 0.0
04/10:30am 35.9 36.2 14.5 27 13.4 W 6 9 3 5 1011.6 1010.0 0.0
04/10:00am 34.8 35.7 15.2 31 12.3 NNE 4 9 2 5 1012.1 1010.5 0.0
04/09:30am 33.7 33.9 14.2 30 12.0 W 6 11 3 6 1012.1 1010.5 0.0
04/09:00am 33.1 34.0 15.1 33 11.2 W 4 9 2 5 1012.2 1010.6 0.0
04/08:30am 31.9 33.5 17.0 41 9.5 WNW 4 6 2 3 1012.2 1010.6 0.0
04/08:00am 31.0 33.7 19.4 50 7.6 SSW 4 6 2 3 1012.3 1010.7 0.0
04/07:30am 29.0 32.4 20.2 59 5.8 SSW 2 6 1 3 1012.2 1010.6 0.0
04/07:00am 25.9 29.5 19.8 69 4.0 CALM 0 0 0 0 1012.2 1010.6 0.0
04/06:30am 23.7 27.6 20.4 82 2.2 CALM 0 0 0 0 1012.1 1010.5 0.0
04/06:00am 22.7 26.2 19.5 82 2.1 CALM 0 0 0 0 1011.7 1010.1 0.0
04/05:30am 23.1 26.7 19.7 81 2.2 CALM 0 0 0 0 1011.4 1009.8 0.0
04/05:00am 23.4 26.7 19.1 77 2.8 CALM 0 0 0 0 1011.1 1009.5 0.0
04/04:30am 24.2 27.6 19.3 74 3.2 CALM 0 2 0 1 1010.9 1009.3 0.0
04/04:00am 24.1 27.4 19.2 74 3.2 CALM 0 2 0 1 1010.8 1009.2 0.0
04/03:30am 25.3 28.2 19.0 68 4.1 SW 2 6 1 3 1010.7 1009.1 0.0
04/03:00am 26.0 28.1 18.2 62 5.0 WSW 4 6 2 3 1010.6 1009.0 0.0
04/02:30am 27.0 28.8 17.5 56 6.0 WSW 4 6 2 3 1010.5 1008.9 0.0
04/02:00am 28.0 29.2 16.0 48 7.5 W 4 7 2 4 1010.6 1009.0 0.0
04/01:30am 28.1 28.2 12.8 38 9.1 NW 4 6 2 3 1010.9 1009.3 0.0
04/01:00am 30.1 29.0 12.1 33 10.6 NNW 9 17 5 9 1011.1 1009.5 0.0
04/12:30am 26.6 28.0 15.3 50 6.9 ENE 2 4 1 2 1011.2 1009.6 0.0
04/12:00am 28.8 28.2 11.8 35 9.9 NE 6 6 3 3 1011.6 1010.0 0.0
 
Date/Time
CST
Temp
°C
App
Temp
°C
Dew
Point
°C
Rel
Hum
%
Delta-T
°C
Wind Press
QNH
hPa
Press
MSL
hPa
Rain since
9am
mm
Dir  Spd
km/h
Gust
km/h
Spd
kts
Gust
kts
03/11:30pm 29.5 28.8 12.0 34 10.3 NE 7 11 4 6 1011.7 1010.1 0.0
03/11:00pm 29.6 29.3 13.4 37 9.7 NE 7 9 4 5 1011.9 1010.3 0.0
03/10:30pm 30.3 30.4 14.0 37 9.9 NE 6 9 3 5 1011.9 1010.3 0.0
03/10:00pm 31.4 31.1 14.5 35 10.4 NE 9 15 5 8 1011.8 1010.2 0.0
03/09:30pm 32.3 31.4 14.9 35 10.8 NNE 13 20 7 11 1011.3 1009.7 0.0
03/09:00pm 31.9 32.5 15.4 37 10.3 NNE 6 9 3 5 1010.8 1009.2 0.0
03/08:30pm 32.5 33.4 15.1 35 10.9 N 4 6 2 3 1010.3 1008.6 0.0
03/08:00pm 33.4 34.2 14.9 32 11.5 N 4 7 2 4 1009.7 1008.0 0.0
03/07:30pm 33.9 34.2 14.9 32 11.9 NNW 7 9 4 5 1009.3 1007.6 0.0
03/07:00pm 34.8 34.4 15.2 31 12.3 NNW 11 19 6 10 1008.7 1007.0 0.0
03/06:30pm 36.1 35.7 13.0 25 14.2 N 7 15 4 8 1008.1 1006.5 0.0
03/06:00pm 37.0 35.1 13.1 24 14.7 NNE 15 22 8 12 1007.8 1006.2 0.0
03/05:30pm 36.9 36.7 13.6 24 14.5 N 7 13 4 7 1007.8 1006.2 0.0
03/05:00pm 38.0 36.6 13.3 23 15.3 NNE 13 24 7 13 1007.7 1006.1 0.0
03/04:30pm 37.8 35.5 13.1 23 15.3 NE 17 24 9 13 1007.4 1005.8 0.0
03/04:00pm 38.1 36.3 13.3 22 15.4 NNE 15 24 8 13 1007.4 1005.8 0.0
03/03:30pm 38.7 38.1 14.5 24 15.3 N 11 22 6 12 1007.6 1006.0 0.0
03/03:00pm 38.6 37.2 14.4 24 15.3 N 15 24 8 13 1007.9 1006.3 0.0
03/02:30pm 38.6 37.5 14.4 24 15.3 N 13 30 7 16 1007.9 1006.3 0.0
03/02:00pm 39.2 37.4 15.6 25 15.1 NNE 19 30 10 16 1008.5 1006.9 0.0
03/01:30pm 37.7 36.6 14.3 25 14.7 N 13 28 7 15 1009.3 1007.6 0.0
03/01:00pm 38.1 38.0 17.0 29 13.7 N 13 28 7 15 1009.9 1008.2 0.0
03/12:30pm 36.6 35.8 15.1 27 13.6 NNE 13 30 7 16 1010.6 1009.0 0.0
03/12:00pm 36.9 35.9 16.5 30 13.2 NE 17 26 9 14 1010.9 1009.3 0.0
03/11:30am 36.3 36.8 17.4 32 12.3 NE 11 24 6 13 1011.4 1009.8 0.0
03/11:00am 34.6 35.0 18.2 37 10.7 N 13 24 7 13 1012.0 1010.4 0.0
03/10:30am 33.6 35.5 18.9 41 9.7 N 7 24 4 13 1012.4 1010.8 0.0
03/10:00am 33.2 35.2 20.0 45 8.8 NNW 9 19 5 10 1012.8 1011.2 0.0
03/09:30am 31.9 34.0 20.2 50 7.8 NNW 9 17 5 9 1013.0 1011.4 0.0
03/09:00am 31.4 33.6 20.4 52 7.4 N 9 17 5 9 1012.9 1011.3 0.0
03/08:30am 30.4 32.7 20.6 55 6.6 N 9 20 5 11 1012.6 1011.0 0.0
03/08:00am 29.3 31.8 21.0 61 5.6 NNE 9 17 5 9 1012.6 1011.0 0.0
03/07:30am 27.8 31.3 21.1 67 4.5 NNE 4 7 2 4 1012.4 1010.8 0.0
03/07:00am 26.5 30.1 21.3 73 3.5 N 4 7 2 4 1012.1 1010.5 0.0
03/06:30am 25.3 28.9 21.2 78 2.7 N 4 6 2 3 1011.7 1010.1 0.0
03/06:00am 24.9 28.1 21.2 80 2.5 N 6 6 3 3 1011.1 1009.5 0.0
03/05:30am 24.8 28.7 21.1 80 2.5 SE 2 4 1 2 1010.5 1008.9 0.0
03/05:00am 25.0 28.5 21.1 79 2.6 SE 4 6 2 3 1010.4 1008.7 0.0
03/04:30am 25.9 30.2 21.1 75 3.2 CALM 0 0 0 0 1010.3 1008.6 0.0
03/04:00am 26.3 29.8 20.4 70 3.9 N 2 4 1 2 1010.2 1008.5 0.0
03/03:30am 26.6 29.8 20.4 69 4.1 N 4 6 2 3 1010.3 1008.6 0.0
03/03:00am 26.9 29.6 20.3 67 4.4 NNE 6 9 3 5 1010.3 1008.6 0.0
03/02:30am 27.1 30.1 20.0 65 4.7 NNE 4 6 2 3 1010.4 1008.7 0.0
03/02:00am 27.6 29.9 19.9 63 5.1 N 7 11 4 6 1010.4 1008.7 0.0
03/01:30am 28.0 29.6 20.0 61 5.3 NNE 11 17 6 9 1010.7 1009.1 0.0
03/01:00am 28.3 29.2 20.1 61 5.4 NNE 15 22 8 12 1010.7 1009.1 0.0
03/12:30am 28.4 30.6 20.4 62 5.3 NE 9 15 5 8 1011.0 1009.4 0.0
03/12:00am 28.9 30.2 20.1 59 5.8 NE 13 20 7 11 1011.1 1009.5 0.0
 
Date/Time
CST
Temp
°C
App
Temp
°C
Dew
Point
°C
Rel
Hum
%
Delta-T
°C
Wind Press
QNH
hPa
Press
MSL
hPa
Rain since
9am
mm
Dir  Spd
km/h
Gust
km/h
Spd
kts
Gust
kts
02/11:30pm 29.5 30.3 19.8 56 6.4 NNE 15 22 8 12 1011.4 1009.8 0.0
02/11:00pm 30.0 30.2 19.4 53 7.0 NNE 17 26 9 14 1011.1 1009.5 0.0
02/10:30pm 30.6 30.6 19.0 50 7.6 NE 17 28 9 15 1010.7 1009.1 0.0
02/10:00pm 30.0 32.0 19.1 52 7.1 NNE 7 13 4 7 1010.3 1008.6 0.0
02/09:30pm 29.6 32.5 19.0 53 6.9 N 2 6 1 3 1009.9 1008.2 0.0
02/09:00pm 29.8 31.9 18.9 52 7.1 NE 6 9 3 5 1009.5 1007.8 0.0
02/08:30pm 30.1 30.6 19.2 52 7.2 NE 15 20 8 11 1009.2 1007.5 0.0
02/08:00pm 30.4 31.7 19.4 51 7.2 ENE 11 24 6 13 1008.8 1007.1 0.0
02/07:30pm 30.8 32.8 17.8 45 8.4 NE 4 6 2 3 1008.0 1006.4 0.0
02/07:00pm 31.5 33.5 17.8 44 8.8 NNE 4 6 2 3 1007.8 1006.2 0.0
02/06:30pm 32.2 33.8 16.9 40 9.8 NE 4 6 2 3 1007.6 1006.0 0.0
02/06:00pm 32.3 33.0 15.7 36 10.4 NE 6 9 3 5 1007.5 1005.9 0.0
02/05:30pm 32.0 32.8 16.3 39 10.0 NE 7 13 4 7 1007.4 1005.8 0.0
02/05:00pm 28.7 28.6 18.8 55 6.4 NNE 17 28 9 15 1007.5 1005.9 0.0
02/04:42pm 31.6 29.3 16.7 40 9.5 NE 24 48 13 26 1007.8 1006.2 0.0
02/04:40pm 32.4 30.1 15.8 36 10.4 NE 22 48 12 26 1007.7 1006.1 0.0
02/04:30pm 37.1 37.8 16.1 29 13.5 NNE 7 19 4 10 1007.2 1005.6 0.0
02/04:00pm 36.7 37.3 15.8 29 13.3 NNE 7 15 4 8 1007.2 1005.6 0.0
02/03:30pm 36.8 37.2 16.4 30 13.2 NNE 9 19 5 10 1007.7 1006.1 0.0
02/03:00pm 37.0 37.1 16.5 29 13.2 N 11 22 6 12 1008.0 1006.4 0.0
02/02:30pm 36.5 36.6 14.5 27 13.8 NNE 7 20 4 11 1008.4 1006.8 0.0
02/02:00pm 36.4 35.9 13.8 26 14.0 NNW 9 17 5 9 1009.0 1007.3 0.0
02/01:30pm 36.3 36.0 14.3 27 13.7 NNE 9 15 5 8 1009.6 1007.9 0.0
02/01:00pm 36.2 35.1 15.3 28 13.2 NNE 15 22 8 12 1010.0 1008.3 0.0
02/12:30pm 35.6 34.9 15.3 29 12.8 N 13 22 7 12 1010.4 1008.7 0.0
02/12:00pm 34.9 34.9 15.3 31 12.4 NNE 9 19 5 10 1010.7 1009.1 0.0
02/11:30am 34.5 35.1 15.9 33 11.8 NNW 7 15 4 8 1011.0 1009.4 0.0
02/11:00am 33.0 33.9 15.0 33 11.2 NNE 4 9 2 5 1011.4 1009.8 0.0
02/10:30am 32.4 32.8 16.3 38 10.2 NE 9 17 5 9 1011.6 1010.0 0.0
02/10:00am 30.7 33.4 20.3 53 6.9 ENE 6 11 3 6 1011.7 1010.1 0.0
02/09:30am 29.1 31.7 20.0 58 6.0 NE 6 7 3 4 1011.6 1010.0 0.0
02/09:00am 27.1 30.2 20.2 66 4.6 E 4 7 2 4 1011.8 1010.2 6.0
02/08:30am 26.0 29.1 20.3 71 3.8 E 4 7 2 4 1011.6 1010.0 6.0
02/08:00am 25.1 28.5 20.1 74 3.3 E 2 6 1 3 1011.4 1009.8 6.0
02/07:30am 24.4 27.9 20.3 78 2.7 ENE 2 6 1 3 1011.0 1009.4 6.0
02/07:00am 23.8 26.9 20.3 81 2.3 NE 4 6 2 3 1010.3 1008.6 6.0
02/06:30am 23.4 27.0 20.5 84 1.9 SE 2 6 1 3 1009.6 1007.9 6.0
02/06:00am 23.4 26.5 20.3 83 2.0 ENE 4 6 2 3 1009.1 1007.4 6.0
02/05:30am 23.6 26.5 19.9 80 2.4 ESE 4 7 2 4 1009.2 1007.5 6.0
02/05:00am 24.0 27.2 19.7 77 2.8 ESE 2 6 1 3 1009.4 1007.7 6.0
02/04:30am 24.1 26.3 19.6 76 2.9 NNE 7 11 4 6 1009.0 1007.3 6.0
02/04:00am 24.2 26.0 19.5 75 3.0 NNE 9 17 5 9 1008.8 1007.1 6.0
02/03:30am 24.4 25.3 19.2 73 3.4 NNE 13 20 7 11 1008.4 1006.8 6.0
02/03:00am 24.7 26.7 19.1 71 3.6 N 7 13 4 7 1008.4 1006.8 6.0
02/02:30am 24.3 26.1 19.6 75 3.1 NW 9 15 5 8 1008.7 1007.0 6.0
02/02:00am 24.1 24.9 19.8 77 2.8 NW 15 22 8 12 1008.8 1007.1 6.0
02/01:30am 24.0 25.2 19.9 78 2.7 NW 13 22 7 12 1009.3 1007.6 6.0
02/01:00am 23.6 25.0 20.3 82 2.2 NW 13 20 7 11 1010.3 1008.6 6.0
02/12:30am 23.2 24.8 20.7 86 1.6 NNW 13 22 7 12 1010.8 1009.2 6.0
02/12:00am 23.4 25.6 21.1 87 1.5 NW 11 17 6 9 1011.2 1009.6 6.0
 
Date/Time
CST
Temp
°C
App
Temp
°C
Dew
Point
°C
Rel
Hum
%
Delta-T
°C
Wind Press
QNH
hPa
Press
MSL
hPa
Rain since
9am
mm
Dir  Spd
km/h
Gust
km/h
Spd
kts
Gust
kts
01/11:30pm 23.4 26.3 21.1 87 1.5 NNE 7 11 4 6 1011.7 1010.1 6.0
01/11:00pm 23.3 24.6 20.8 86 1.6 W 15 24 8 13 1010.9 1009.3 5.8
01/10:30pm 23.2 24.1 20.9 87 1.5 W 17 24 9 13 1010.2 1008.5 5.8
01/10:00pm 23.4 23.4 20.9 86 1.6 WNW 22 33 12 18 1009.9 1008.2 5.6

Other Formats:

Comma delimited format used in spreadsheet applications
http://www.bom.gov.au/fwo/IDD60801/IDD60801.94234.axf

JavaScript Object Notation format (JSON) in row-major order
http://www.bom.gov.au/fwo/IDD60801/IDD60801.94234.json